Time;durP1;ratioP1;P1;durP2;ratioP2;P2;SDS_P1;SDS_P2;PMS_P1;PMS_P2;Temp;Humidity;BMP_temperature;BMP_pressure;BME280_temperature;BME280_humidity;BME280_pressure;Samples;Min_cycle;Max_cycle;Signal;HPM_P1;HPM_P2
2023/06/01 00:00:15;;;;;;;;;;;;;;;17.75;66.67;100101.41;4483365;31;34185;-81
2023/06/01 00:02:43;;;;;;;;;;;;;;;18.08;65.91;100097.72;4484776;32;33498;-80
2023/06/01 00:05:10;;;;;;;;;;;;;;;17.94;66.45;100104.41;4484252;32;33877;-82
2023/06/01 00:07:37;;;;;;;;;;;;;;;18.14;66.06;100099.53;4484248;32;33883;-82
2023/06/01 00:10:05;;;;;;;;;;;;;;;18.25;65.69;100098.91;4484537;32;33916;-81
2023/06/01 00:12:33;;;;;;;;;;;;;;;18.47;64.53;100094.03;4484236;32;34135;-82
2023/06/01 00:15:00;;;;;;;;;;;;;;;18.63;63.56;100096.06;4470263;31;32336;-81
2023/06/01 00:17:28;;;;;;;;;;;;;;;19.44;60.82;100093.81;4484758;31;34846;-80
2023/06/01 00:19:56;;;;;;;;;;;;;;;21.05;55.66;100090.22;4484784;31;34244;-83
2023/06/01 00:22:23;;;;;;;;;;;;;;;21.71;53.02;100078.31;4494011;31;33077;-82
2023/06/01 00:24:51;;;;;;;;;;;;;;;22.82;49.10;100086.44;4484414;31;34376;-80
2023/06/01 00:27:19;;;;;;;;;;;;;;;23.31;47.60;100080.22;4487603;31;32723;-80
2023/06/01 00:29:46;;;;;;;;;;;;;;;24.09;45.27;100076.41;4496464;31;34552;-80
2023/06/01 00:32:13;;;;;;;;;;;;;;;23.91;45.33;100080.00;4483462;31;32941;-82
2023/06/01 00:34:41;;;;;;;;;;;;;;;23.91;44.78;100074.72;4481549;31;35278;-83
2023/06/01 00:37:08;;;;;;;;;;;;;;;21.75;49.96;100085.38;4486601;31;34086;-83
2023/06/01 00:39:35;;;;;;;;;;;;;;;21.31;51.53;100083.38;4487022;31;34030;-82
2023/06/01 00:42:03;;;;;;;;;;;;;;;19.67;56.73;100087.09;4485479;31;32490;-81
2023/06/01 00:44:30;;;;;;;;;;;;;;;19.31;58.20;100078.72;4469171;31;32520;-80
2023/06/01 00:46:59;;;;;;;;;;;;;;;18.92;60.05;100087.81;4485557;31;34766;-80
2023/06/01 00:49:26;;;;;;;;;;;;;;;18.35;62.04;100085.94;4477825;31;34816;-83
2023/06/01 00:51:53;;;;;;;;;;;;;;;17.87;64.04;100085.06;4492333;31;33767;-81
2023/06/01 00:54:21;;;;;;;;;;;;;;;17.49;64.90;100091.22;4470833;32;33620;-79
2023/06/01 00:56:48;;;;;;;;;;;;;;;17.47;65.08;100089.44;4473997;31;34231;-79
2023/06/01 00:59:15;;;;;;;;;;;;;;;17.84;63.64;100085.00;4488468;31;34052;-83
2023/06/01 01:01:43;;;;;;;;;;;;;;;18.39;61.71;100083.41;4482654;31;33527;-82
2023/06/01 01:04:13;;;;;;;;;;;;;;;18.70;60.58;100083.03;4496783;31;33419;-81
2023/06/01 01:06:56;;;;;;;;;;;;;;;18.57;60.99;100084.59;4485197;31;34262;-82
2023/06/01 01:09:28;;;;;;;;;;;;;;;18.90;60.03;100086.91;4471081;31;33187;-83
2023/06/01 01:12:18;;;;;;;;;;;;;;;18.99;59.49;100079.16;4474357;32;34000;-80
2023/06/01 01:15:08;;;;;;;;;;;;;;;18.73;59.89;100081.34;4469520;32;34403;-80
2023/06/01 01:17:38;;;;;;;;;;;;;;;17.97;62.76;100078.28;4486018;31;33513;-82
2023/06/01 01:20:10;;;;;;;;;;;;;;;17.91;63.25;100080.78;4485603;31;33908;-83
2023/06/01 01:22:38;;;;;;;;;;;;;;;17.95;62.90;100074.75;4491772;31;32932;-82
2023/06/01 01:25:08;;;;;;;;;;;;;;;17.23;65.29;100079.31;4489251;31;35006;-80
2023/06/01 01:27:59;;;;;;;;;;;;;;;17.95;62.33;100077.34;4493409;31;33117;-82
2023/06/01 01:30:27;;;;;;;;;;;;;;;18.00;62.18;100076.59;4491245;31;34035;-83
2023/06/01 01:32:55;;;;;;;;;;;;;;;18.88;58.85;100077.25;4489259;31;33758;-83
2023/06/01 01:35:23;;;;;;;;;;;;;;;18.99;58.08;100075.66;4487880;31;33937;-81
2023/06/01 01:37:51;;;;;;;;;;;;;;;18.90;58.43;100076.41;4483924;31;32471;-83
2023/06/01 01:40:19;;;;;;;;;;;;;;;19.48;56.22;100072.84;4474855;32;34140;-80
2023/06/01 01:42:47;;;;;;;;;;;;;;;19.96;55.13;100077.81;4490552;31;33488;-81
2023/06/01 01:45:14;;;;;;;;;;;;;;;19.88;55.15;100076.00;4471833;31;33914;-82
2023/06/01 01:47:51;;;;;;;;;;;;;;;19.51;56.03;100078.13;4475509;32;33967;-80
2023/06/01 01:50:18;;;;;;;;;;;;;;;19.22;57.40;100076.00;4487970;31;33834;-83
2023/06/01 01:52:46;;;;;;;;;;;;;;;18.33;60.44;100069.28;4495861;31;32703;-83
2023/06/01 01:55:15;;;;;;;;;;;;;;;17.71;62.55;100075.09;4486350;31;34721;-83
2023/06/01 01:57:42;;;;;;;;;;;;;;;18.28;60.48;100072.72;4485464;32;34295;-83
2023/06/01 02:00:12;;;;;;;;;;;;;;;17.75;62.08;100069.97;4484442;31;34128;-83
2023/06/01 02:02:39;;;;;;;;;;;;;;;17.55;62.42;100069.53;4485613;32;33220;-83
2023/06/01 02:05:07;;;;;;;;;;;;;;;18.19;60.07;100064.69;4485469;32;34715;-81
2023/06/01 02:07:34;;;;;;;;;;;;;;;17.29;63.16;100069.00;4490557;31;34746;-83
2023/06/01 02:10:02;;;;;;;;;;;;;;;16.65;65.77;100078.78;4496083;31;33997;-81
2023/06/01 02:12:30;;;;;;;;;;;;;;;17.46;63.24;100066.72;4459631;31;31278;-81
2023/06/01 02:14:58;;;;;;;;;;;;;;;17.74;61.66;100057.69;4491752;31;33849;-83
2023/06/01 02:17:27;;;;;;;;;;;;;;;18.88;57.85;100070.25;4491106;31;33656;-83
2023/06/01 02:19:55;;;;;;;;;;;;;;;19.71;55.37;100058.22;4473858;32;32959;-82
2023/06/01 02:22:22;;;;;;;;;;;;;;;20.28;53.65;100052.72;4480987;32;33042;-84
2023/06/01 02:24:50;;;;;;;;;;;;;;;20.18;53.47;100057.87;4488749;31;33677;-82
2023/06/01 02:27:17;;;;;;;;;;;;;;;19.81;54.75;100057.50;4478185;32;34825;-83
2023/06/01 02:29:45;;;;;;;;;;;;;;;18.85;57.69;100059.69;4497282;31;34412;-83
2023/06/01 02:32:12;;;;;;;;;;;;;;;18.31;59.59;100061.44;4486461;31;34196;-82
2023/06/01 02:34:39;;;;;;;;;;;;;;;18.19;60.23;100050.69;4490555;31;34344;-81
2023/06/01 02:37:07;;;;;;;;;;;;;;;18.09;60.36;100057.50;4492661;31;33092;-82
2023/06/01 02:39:34;;;;;;;;;;;;;;;17.76;60.98;100045.50;4479245;31;34276;-81
2023/06/01 02:42:02;;;;;;;;;;;;;;;17.38;62.03;100048.22;4492844;31;33280;-83
2023/06/01 02:44:30;;;;;;;;;;;;;;;17.61;61.61;100053.06;4484604;32;34683;-84
2023/06/01 02:46:57;;;;;;;;;;;;;;;17.45;62.16;100044.88;4488074;31;34726;-82
2023/06/01 02:49:25;;;;;;;;;;;;;;;17.86;60.44;100052.72;4486370;31;33516;-82
2023/06/01 02:51:52;;;;;;;;;;;;;;;17.25;62.74;100046.22;4474079;31;33936;-81
2023/06/01 02:54:20;;;;;;;;;;;;;;;17.87;60.80;100051.88;4495394;31;34245;-81
2023/06/01 02:56:47;;;;;;;;;;;;;;;18.45;58.61;100049.41;4495063;31;34025;-84
2023/06/01 02:59:15;;;;;;;;;;;;;;;17.94;60.07;100049.38;4486309;31;34150;-82
2023/06/01 03:01:43;;;;;;;;;;;;;;;18.57;58.26;100051.34;4496966;31;33387;-81
2023/06/01 03:04:12;;;;;;;;;;;;;;;17.99;60.40;100047.72;4479651;31;34848;-83
2023/06/01 03:06:40;;;;;;;;;;;;;;;18.38;59.40;100051.91;4485045;32;34876;-81
2023/06/01 03:09:12;;;;;;;;;;;;;;;17.91;60.81;100055.44;4493492;31;34767;-80
2023/06/01 03:11:41;;;;;;;;;;;;;;;18.48;58.73;100053.81;4489348;31;32699;-82
2023/06/01 03:14:09;;;;;;;;;;;;;;;18.33;59.24;100048.31;4482642;31;33615;-79
2023/06/01 03:16:36;;;;;;;;;;;;;;;18.27;59.21;100049.09;4489651;31;34731;-82
2023/06/01 03:19:05;;;;;;;;;;;;;;;17.70;60.60;100048.00;4493110;31;33999;-82
2023/06/01 03:21:33;;;;;;;;;;;;;;;17.94;59.83;100049.38;4484951;32;33433;-83
2023/06/01 03:24:01;;;;;;;;;;;;;;;17.53;60.94;100059.88;4485021;32;34410;-84
2023/06/01 03:26:28;;;;;;;;;;;;;;;17.34;61.83;100051.63;4487214;31;35314;-80
2023/06/01 03:28:55;;;;;;;;;;;;;;;17.58;61.19;100050.41;4494574;31;35295;-80
2023/06/01 03:31:23;;;;;;;;;;;;;;;18.50;58.27;100049.47;4485382;32;32746;-83
2023/06/01 03:33:53;;;;;;;;;;;;;;;18.09;58.50;100047.03;4485113;31;34145;-81
2023/06/01 03:36:21;;;;;;;;;;;;;;;19.64;54.47;100044.16;4485203;32;34112;-81
2023/06/01 03:38:48;;;;;;;;;;;;;;;19.86;53.93;100044.44;4480405;32;33885;-82
2023/06/01 03:41:16;;;;;;;;;;;;;;;19.71;54.33;100042.47;4488935;31;32660;-79
2023/06/01 03:43:44;;;;;;;;;;;;;;;19.16;55.80;100044.37;4496698;31;35182;-83
2023/06/01 03:46:11;;;;;;;;;;;;;;;17.74;59.89;100047.22;4487583;31;34207;-81
2023/06/01 03:48:39;;;;;;;;;;;;;;;17.61;60.96;100045.19;4490595;31;34621;-80
2023/06/01 03:51:07;;;;;;;;;;;;;;;17.04;62.90;100059.72;4492850;31;33766;-80
2023/06/01 03:53:35;;;;;;;;;;;;;;;16.84;64.18;100054.00;4475424;32;34182;-82
2023/06/01 03:56:02;;;;;;;;;;;;;;;17.40;62.55;100045.62;4489558;31;34884;-81
2023/06/01 03:58:30;;;;;;;;;;;;;;;18.25;59.64;100042.94;4491087;31;34088;-82
2023/06/01 04:00:59;;;;;;;;;;;;;;;18.01;59.70;100032.91;4486533;31;33966;-82
2023/06/01 04:03:27;;;;;;;;;;;;;;;18.19;59.32;100038.47;4488075;31;33315;-80
2023/06/01 04:05:59;;;;;;;;;;;;;;;20.61;52.37;100037.25;4474704;31;35064;-79
2023/06/01 04:08:26;;;;;;;;;;;;;;;18.64;58.34;100045.34;4490823;31;34938;-83
2023/06/01 04:10:54;;;;;;;;;;;;;;;17.97;60.15;100041.56;4491670;31;33405;-80
2023/06/01 04:13:21;;;;;;;;;;;;;;;17.36;62.50;100046.44;4489040;31;35029;-84
2023/06/01 04:15:49;;;;;;;;;;;;;;;18.17;60.14;100044.53;4490771;31;34013;-80
2023/06/01 04:18:17;;;;;;;;;;;;;;;17.71;61.28;100041.03;4492026;31;33873;-81
2023/06/01 04:20:45;;;;;;;;;;;;;;;18.45;59.18;100045.91;4487246;31;33345;-81
2023/06/01 04:23:12;;;;;;;;;;;;;;;18.12;60.06;100047.09;4492640;31;34810;-80
2023/06/01 04:25:43;;;;;;;;;;;;;;;18.31;59.95;100042.16;4492154;31;34160;-83
2023/06/01 04:28:11;;;;;;;;;;;;;;;17.99;60.93;100047.72;4485116;31;34011;-81
2023/06/01 04:30:40;;;;;;;;;;;;;;;19.35;56.71;100050.78;4493853;31;33381;-80
2023/06/01 04:33:09;;;;;;;;;;;;;;;19.42;56.54;100048.25;4484027;31;33515;-80
2023/06/01 04:35:37;;;;;;;;;;;;;;;20.09;54.93;100049.94;4485968;31;33824;-85
2023/06/01 04:38:04;;;;;;;;;;;;;;;22.62;48.09;100038.03;4485614;31;34302;-82
2023/06/01 04:40:33;;;;;;;;;;;;;;;20.40;53.35;100047.59;4472284;32;33017;-84
2023/06/01 04:43:02;;;;;;;;;;;;;;;21.97;49.88;100040.59;4486541;31;34251;-85
2023/06/01 04:45:33;;;;;;;;;;;;;;;20.12;54.66;100052.56;4473056;31;34134;-82
2023/06/01 04:48:01;;;;;;;;;;;;;;;20.60;53.72;100050.41;4471419;32;33156;-84
2023/06/01 04:50:29;;;;;;;;;;;;;;;20.36;54.40;100054.56;4471970;32;33233;-82
2023/06/01 04:52:58;;;;;;;;;;;;;;;19.38;56.88;100051.69;4486900;31;34831;-84
2023/06/01 04:55:26;;;;;;;;;;;;;;;19.55;56.86;100059.81;4487334;31;34011;-85
2023/06/01 04:57:53;;;;;;;;;;;;;;;20.43;54.54;100060.75;4488999;31;33999;-86
2023/06/01 05:00:20;;;;;;;;;;;;;;;20.18;55.30;100057.00;4480954;31;33381;-85
2023/06/01 05:02:49;;;;;;;;;;;;;;;19.97;56.17;100052.41;4484312;31;34267;-84
2023/06/01 05:05:19;;;;;;;;;;;;;;;20.72;53.47;100060.16;4492850;31;34095;-79
2023/06/01 05:07:46;;;;;;;;;;;;;;;20.70;53.00;100060.13;4485499;31;34294;-80
2023/06/01 05:10:14;;;;;;;;;;;;;;;21.40;51.10;100051.81;4487451;31;33951;-80
2023/06/01 05:12:42;;;;;;;9.45;3.10;;;;;;;23.26;47.96;100048.53;4486774;31;34274;-80
2023/06/01 05:15:10;;;;;;;;;;;;;;;24.46;44.21;100045.22;4491495;31;33830;-81
2023/06/01 05:17:39;;;;;;;;;;;;;;;24.10;45.34;100054.31;4474175;32;34347;-83
2023/06/01 05:20:08;;;;;;;;;;;;;;;24.31;45.19;100058.59;4469423;31;33447;-82
2023/06/01 05:22:36;;;;;;;;;;;;;;;25.29;42.45;100056.88;4486559;31;34233;-81
2023/06/01 05:25:05;;;;;;;;;;;;;;;22.63;48.13;100055.62;4493380;31;34767;-82
2023/06/01 05:27:33;;;;;;;;;;;;;;;23.11;47.50;100053.84;4493016;31;34304;-80
2023/06/01 05:30:00;;;;;;;;;;;;;;;22.93;48.02;100055.59;4490481;31;33875;-81
2023/06/01 05:32:29;;;;;;;;;;;;;;;23.07;47.05;100055.62;4490849;31;33849;-81
2023/06/01 05:34:58;;;;;;;;;;;;;;;23.16;46.44;100049.44;4485287;31;34832;-82
2023/06/01 05:37:25;;;;;;;;;;;;;;;24.47;43.53;100048.75;4493515;31;34842;-81
2023/06/01 05:39:53;;;;;;;;;;;;;;;24.96;42.34;100044.84;4478258;31;32546;-83
2023/06/01 05:42:20;;;;;;;;;;;;;;;25.29;41.90;100044.47;4491900;31;35435;-82
2023/06/01 05:44:48;;;;;;;;;;;;;;;25.46;41.42;100040.75;4475227;31;35112;-81
2023/06/01 05:47:15;;;;;;;;;;;;;;;25.59;40.32;100039.69;4493652;31;34705;-80
2023/06/01 05:49:43;;;;;;;;;;;;;;;25.35;39.81;100046.19;4494254;31;33720;-82
2023/06/01 05:52:13;;;;;;;;;;;;;;;26.14;38.26;100045.16;4487540;31;32601;-81
2023/06/01 05:54:42;;;;;;;;;;;;;;;26.59;37.56;100046.22;4494289;31;34198;-80
2023/06/01 05:57:09;;;;;;;;;;;;;;;26.53;37.19;100045.44;4491723;31;34222;-80
2023/06/01 05:59:37;;;;;;;;;;;;;;;26.72;36.96;100046.03;4493941;31;33998;-81
2023/06/01 06:02:05;;;;;;;;;;;;;;;26.54;36.57;100042.75;4484819;31;34293;-82
2023/06/01 06:04:33;;;;;;;;;;;;;;;26.04;37.31;100042.66;4486374;31;33970;-80
2023/06/01 06:07:00;;;;;;;;;;;;;;;26.37;35.36;100039.50;4477050;31;33674;-80
2023/06/01 06:09:27;;;;;;;;;;;;;;;26.76;35.56;100040.63;4498054;31;34485;-81
2023/06/01 06:11:55;;;;;;;;;;;;;;;27.06;34.34;100039.19;4488073;31;34869;-81
2023/06/01 06:14:22;;;;;;;;;;;;;;;27.13;34.13;100041.72;4489786;31;32558;-80
2023/06/01 06:16:50;;;;;;;;;;;;;;;27.23;33.88;100044.16;4489013;31;34512;-80
2023/06/01 06:19:17;;;;;;;;;;;;;;;27.09;34.14;100045.34;4495249;31;33323;-80
2023/06/01 06:21:44;;;;;;;;;;;;;;;26.22;35.61;100045.94;4495812;31;34053;-80
2023/06/01 06:24:12;;;;;;;;;;;;;;;25.79;35.35;100047.41;4478260;32;34927;-80
2023/06/01 06:26:40;;;;;;;;;;;;;;;26.38;34.85;100041.25;4449156;31;34812;-80
2023/06/01 06:29:07;;;;;;;;;;;;;;;27.19;33.67;100039.81;4475776;32;32949;-81
2023/06/01 06:31:34;;;;;;;;;;;;;;;27.75;32.65;100036.03;4486937;31;34129;-81
2023/06/01 06:34:02;;;;;;;;;;;;;;;27.79;32.39;100043.03;4471863;31;34125;-84
2023/06/01 06:36:29;;;;;;;;;;;;;;;27.86;32.43;100044.66;4488414;31;34700;-84
2023/06/01 06:38:56;;;;;;;;;;;;;;;27.59;33.18;100041.69;4493680;31;33275;-83
2023/06/01 06:41:24;;;;;;;;;;;;;;;28.60;30.56;100048.28;4476131;31;34135;-82
2023/06/01 06:43:52;;;;;;;7.37;2.20;;;;;;;28.29;31.49;100037.50;4489610;31;33970;-81
2023/06/01 06:46:19;;;;;;;;;;;;;;;28.74;31.33;100035.50;4481891;31;32706;-81
2023/06/01 06:48:47;;;;;;;;;;;;;;;28.22;31.41;100036.75;4470864;32;32473;-82
2023/06/01 06:51:14;;;;;;;;;;;;;;;28.52;31.94;100034.28;4490769;31;32616;-81
2023/06/01 06:53:41;;;;;;;;;;;;;;;27.17;34.08;100030.97;4491499;31;34491;-81
2023/06/01 06:56:09;;;;;;;;;;;;;;;28.54;30.77;100032.47;4468365;31;33862;-81
2023/06/01 06:58:36;;;;;;;;;;;;;;;27.98;32.30;100033.75;4485359;31;33850;-81
2023/06/01 07:01:05;;;;;;;;;;;;;;;28.79;30.91;100033.56;4476803;31;32785;-81
2023/06/01 07:03:32;;;;;;;;;;;;;;;28.35;32.94;100032.88;4490470;31;33961;-81
2023/06/01 07:06:00;;;;;;;;;;;;;;;29.05;31.97;100028.44;4492716;31;34750;-81
2023/06/01 07:08:28;;;;;;;;;;;;;;;28.60;30.98;100037.63;4472288;31;33710;-82
2023/06/01 07:10:57;;;;;;;;;;;;;;;28.27;32.81;100034.84;4473977;31;33542;-83
2023/06/01 07:13:24;;;;;;;;;;;;;;;28.33;32.18;100034.72;4493953;31;34145;-82
2023/06/01 07:15:52;;;;;;;;;;;;;;;29.29;30.04;100032.25;4487901;31;33535;-81
2023/06/01 07:18:20;;;;;;;;;;;;;;;27.98;32.86;100036.44;4463276;31;32297;-83
2023/06/01 07:20:47;;;;;;;6.95;3.03;;;;;;;28.61;31.95;100034.06;4458242;31;33123;-82
2023/06/01 07:23:16;;;;;;;9.55;3.03;;;;;;;29.02;30.76;100024.06;4471168;31;33932;-80
2023/06/01 07:25:43;;;;;;;7.50;2.58;;;;;;;30.34;28.92;100025.50;4486564;31;34157;-80
2023/06/01 07:28:12;;;;;;;8.13;3.03;;;;;;;31.64;27.01;100031.62;4476273;31;33118;-83
2023/06/01 07:30:40;;;;;;;7.40;2.72;;;;;;;31.65;27.63;100028.91;4474860;31;33709;-83
2023/06/01 07:33:08;;;;;;;;;;;;;;;30.98;27.04;100032.25;4489992;31;33800;-82
2023/06/01 07:35:35;;;;;;;;;;;;;;;30.68;27.64;100034.19;4491897;31;34125;-82
2023/06/01 07:38:03;;;;;;;;;;;;;;;31.15;26.18;100023.63;4472944;31;34186;-82
2023/06/01 07:40:30;;;;;;;;;;;;;;;31.40;26.94;100023.59;4478037;31;33549;-82
2023/06/01 07:42:58;;;;;;;;;;;;;;;33.23;24.74;100018.78;4476557;31;32389;-82
2023/06/01 07:45:25;;;;;;;;;;;;;;;33.00;24.03;100019.78;4467690;31;32512;-82
2023/06/01 07:47:53;;;;;;;;;;;;;;;33.27;23.38;100014.16;4492437;31;33108;-81
2023/06/01 07:50:23;;;;;;;;;;;;;;;34.52;22.85;100016.25;4487095;31;33791;-82
2023/06/01 07:52:52;;;;;;;;;;;;;;;33.48;23.52;100007.78;4489268;31;34841;-82
2023/06/01 07:55:19;;;;;;;;;;;;;;;33.91;23.21;100014.78;4476997;32;34127;-82
2023/06/01 07:57:47;;;;;;;;;;;;;;;35.54;21.54;100011.78;4493793;31;32902;-83
2023/06/01 08:00:17;;;;;;;;;;;;;;;36.00;21.17;100011.91;4478222;31;32500;-83
2023/06/01 08:02:44;;;;;;;;;;;;;;;37.09;20.33;100009.94;4471471;31;32132;-81
2023/06/01 08:05:12;;;;;;;;;;;;;;;36.62;19.50;100017.28;4472307;31;34032;-82
2023/06/01 08:07:39;;;;;;;;;;;;;;;37.34;19.18;100002.09;4494942;31;33298;-81
2023/06/01 08:10:08;;;;;;;;;;;;;;;34.96;21.69;100008.56;4486603;31;35024;-81
2023/06/01 08:12:36;;;;;;;;;;;;;;;36.38;20.73;100014.22;4473897;31;33685;-81
2023/06/01 08:15:03;;;;;;;;;;;;;;;37.63;18.85;100004.78;4492857;31;34623;-82
2023/06/01 08:17:31;;;;;;;;;;;;;;;38.11;18.77;100007.97;4479656;31;33874;-81
2023/06/01 08:19:58;;;;;;;;;;;;;;;37.12;19.66;99996.25;4473880;32;32356;-82
2023/06/01 08:22:25;;;;;;;;;;;;;;;33.28;21.92;99998.00;4490058;31;35083;-81
2023/06/01 08:24:53;;;;;;;;;;;;;;;33.58;22.18;99992.09;4471734;32;32743;-81
2023/06/01 08:27:21;;;;;;;;;;;;;;;32.83;22.84;99998.22;4479111;31;33355;-82
2023/06/01 08:29:52;;;;;;;;;;;;;;;31.97;24.54;100001.78;4493321;31;34344;-82
2023/06/01 08:32:22;;;;;;;;;;;;;;;34.13;22.39;99999.31;4457453;32;34216;-82
2023/06/01 08:34:49;;;;;;;;;;;;;;;35.43;22.28;99994.41;4490042;31;35414;-83
2023/06/01 08:37:16;;;;;;;;;;;;;;;36.09;21.15;99997.03;4490720;31;33701;-80
2023/06/01 08:39:44;;;;;;;;;;;;;;;34.34;21.75;99996.53;4484207;32;34869;-81
2023/06/01 08:42:15;;;;;;;;;;;;;;;32.00;25.59;100001.66;4472406;31;33716;-81
2023/06/01 08:44:42;;;;;;;;;;;;;;;34.87;22.40;99995.63;4498265;31;34182;-81
2023/06/01 08:47:10;;;;;;;;;;;;;;;34.07;22.43;99999.63;4470728;32;33180;-82
2023/06/01 08:49:37;;;;;;;;;;;;;;;33.94;22.00;99993.13;4474500;31;34895;-83
2023/06/01 08:52:09;;;;;;;;;;;;;;;34.70;21.96;99988.44;4468004;32;33201;-81
2023/06/01 08:54:37;;;;;;;;;;;;;;;34.73;21.08;99988.28;4488561;31;34346;-82
2023/06/01 08:57:07;;;;;;;;;;;;;;;35.51;20.72;99993.09;4479125;31;34073;-81
2023/06/01 08:59:36;;;;;;;;;;;;;;;35.83;21.36;99992.19;4486172;31;34842;-82
2023/06/01 09:02:03;;;;;;;;;;;;;;;31.72;26.45;99994.75;4482242;31;34125;-82
2023/06/01 09:04:41;;;;;;;;;;;;;;;32.41;23.82;99986.56;4487363;31;33945;-83
2023/06/01 09:07:09;;;;;;;;;;;;;;;35.29;20.99;99975.41;4487199;31;33474;-81
2023/06/01 09:09:36;;;;;;;;;;;;;;;34.32;22.06;99980.47;4486881;31;34194;-83
2023/06/01 09:12:20;;;;;;;;;;;;;;;35.71;20.54;99983.94;4485681;32;34124;-83
2023/06/01 09:14:47;;;;;;;;;;;;;;;33.55;21.54;99977.94;4460616;31;32723;-81
2023/06/01 09:17:21;;;;;;;;;;;;;;;31.44;23.46;99971.66;4474948;31;30428;-85
2023/06/01 09:19:55;;;;;;;;;;;;;;;30.64;26.20;99974.59;4493162;31;34669;-84
2023/06/01 09:22:22;;;;;;;;;;;;;;;30.36;26.10;99975.53;4477392;32;35584;-86
2023/06/01 09:24:59;;;;;;;;;;;;;;;32.94;23.00;99969.09;4491779;31;33989;-87
2023/06/01 09:27:27;;;;;;;;;;;;;;;34.01;22.23;99967.69;4491123;31;33396;-86
2023/06/01 09:29:55;;;;;;;;;;;;;;;33.85;21.74;99965.75;4486436;31;33886;-86
2023/06/01 09:32:22;;;;;;;;;;;;;;;33.46;22.79;99966.72;4478077;32;33650;-89
2023/06/01 09:34:49;;;;;;;;;;;;;;;31.09;25.81;99962.31;4478890;31;33628;-84
2023/06/01 09:37:17;;;;;;;;;;;;;;;32.23;25.49;99971.25;4493245;31;33446;-80
2023/06/01 09:39:44;;;;;;;;;;;;;;;33.05;24.54;99961.44;4489645;31;34221;-81
2023/06/01 09:42:12;;;;;;;;;;;;;;;32.06;27.36;99970.16;4466767;32;33975;-80
2023/06/01 09:44:40;;;;;;;;;;;;;;;30.94;27.44;99966.44;4496128;31;34130;-82
2023/06/01 09:47:12;;;;;;;;;;;;;;;30.80;27.07;99966.03;4475381;31;33374;-80
2023/06/01 09:49:41;;;;;;;;;;;;;;;30.27;26.36;99965.16;4491731;31;33797;-81
2023/06/01 09:52:09;;;;;;;;;;;;;;;30.26;27.56;99974.06;4467499;31;34788;-81
2023/06/01 09:54:44;;;;;;;;;;;;;;;30.23;27.74;99974.19;4492396;31;34588;-81
2023/06/01 09:57:12;;;;;;;;;;;;;;;30.01;28.21;99975.81;4482348;31;32394;-81
2023/06/01 09:59:43;;;;;;;;;;;;;;;31.16;25.95;99967.38;4496637;31;34143;-83
2023/06/01 10:02:20;;;;;;;;;;;;;;;30.73;26.52;99957.34;4498725;31;34952;-80
2023/06/01 10:04:49;;;;;;;;;;;;;;;30.36;25.33;99964.84;4475209;32;33935;-81
2023/06/01 10:07:17;;;;;;;;;;;;;;;30.61;25.69;99953.31;4458833;32;33288;-81
2023/06/01 10:09:46;;;;;;;;;;;;;;;32.16;24.15;99954.56;4496365;31;34145;-81
2023/06/01 10:12:14;;;;;;;;;;;;;;;31.64;26.93;99957.56;4485471;31;33977;-81
2023/06/01 10:14:41;;;;;;;;;;;;;;;30.45;27.75;99958.31;4486358;31;34108;-81
2023/06/01 10:17:09;;;;;;;;;;;;;;;29.97;27.27;99951.00;4485296;31;33933;-80
2023/06/01 10:19:39;;;;;;;;;;;;;;;29.29;28.98;99946.88;4495285;31;34293;-81
2023/06/01 10:22:07;;;;;;;;;;;;;;;29.74;28.11;99949.09;4489764;31;34526;-80
2023/06/01 10:24:35;;;;;;;;;;;;;;;30.92;26.98;99942.41;4473692;31;33917;-80
2023/06/01 10:27:15;;;;;;;;;;;;;;;31.02;25.53;99932.22;4488538;31;33557;-81
2023/06/01 10:29:43;;;;;;;;;;;;;;;31.57;25.85;99937.31;4478245;31;34287;-82
2023/06/01 10:32:30;;;;;;;;;;;;;;;32.49;26.01;99929.91;4480725;31;33571;-82
2023/06/01 10:34:57;;;;;;;;;;;;;;;32.28;26.03;99927.25;4493888;31;33678;-82
2023/06/01 10:37:25;;;;;;;;;;;;;;;33.45;25.53;99930.03;4486026;31;32807;-80
2023/06/01 10:39:52;;;;;;;;;;;;;;;33.13;23.35;99925.34;4484201;31;34947;-82
2023/06/01 10:42:22;;;;;;;;;;;;;;;32.00;25.34;99923.97;4478022;32;33505;-80
2023/06/01 10:44:50;;;;;;;;;;;;;;;32.10;26.58;99920.88;4476121;31;32913;-81
2023/06/01 10:47:20;;;;;;;;;;;;;;;31.29;26.85;99924.09;4474576;32;32660;-80
2023/06/01 10:49:48;;;;;;;;;;;;;;;30.08;29.75;99915.94;4488404;31;33597;-81
2023/06/01 10:52:35;;;;;;;;;;;;;;;31.49;27.79;99921.53;4488269;31;32345;-82
2023/06/01 10:55:09;;;;;;;;;;;;;;;30.66;28.09;99913.94;4485741;31;33619;-81
2023/06/01 10:57:37;;;;;;;;;;;;;;;32.71;25.53;99911.97;4488076;31;33682;-80
2023/06/01 11:00:08;;;;;;;;;;;;;;;30.71;27.80;99914.63;4471979;31;35113;-81
2023/06/01 11:02:42;;;;;;;;;;;;;;;33.18;23.28;99907.22;4488827;31;34533;-82
2023/06/01 11:05:28;;;;;;;;;;;;;;;33.17;23.27;99905.47;4487419;31;34924;-82
2023/06/01 11:07:55;;;;;;;;;;;;;;;34.87;21.98;99904.13;4477283;31;34111;-83
2023/06/01 11:10:45;;;;;;;;;;;;;;;36.24;19.93;99903.59;4487659;31;34275;-82
2023/06/01 11:13:17;;;;;;;;;;;;;;;34.98;22.30;99895.44;4477735;31;33626;-82
2023/06/01 11:16:03;;;;;;;;;;;;;;;34.52;23.40;99898.78;4484466;31;34297;-83
2023/06/01 11:18:41;;;;;;;;;;;;;;;33.74;23.11;99892.88;4471637;32;31710;-82
2023/06/01 11:21:09;;;;;;;;;;;;;;;33.20;23.94;99894.59;4490037;31;34231;-85
2023/06/01 11:23:39;;;;;;;;;;;;;;;34.17;23.06;99893.44;4488897;31;34394;-82
2023/06/01 11:26:07;;;;;;;;;;;;;;;34.55;22.91;99877.09;4493617;31;33260;-82
2023/06/01 11:28:35;;;;;;;;;;;;;;;31.27;27.45;99883.12;4487104;31;33245;-81
2023/06/01 11:31:02;;;;;;;;;;;;;;;31.22;28.29;99877.09;4492964;31;34595;-83
2023/06/01 11:33:31;;;;;;;;;;;;;;;30.92;28.84;99880.00;4475984;32;33396;-82
2023/06/01 11:36:05;;;;;;;;;;;;;;;30.73;28.31;99878.03;4483517;31;33551;-82
2023/06/01 11:38:33;;;;;;;;;;;;;;;31.60;24.91;99869.34;4488513;31;33350;-81
2023/06/01 11:41:03;;;;;;;;;;;;;;;32.32;25.79;99861.84;4488526;31;33623;-81
2023/06/01 11:43:31;;;;;;;;;;;;;;;34.92;22.01;99856.28;4473700;32;33736;-81
2023/06/01 11:46:02;;;;;;;;;;;;;;;35.57;23.09;99860.75;4488426;31;34341;-82
2023/06/01 11:49:01;;;;;;;;;;;;;;;34.41;24.71;99847.38;4484829;31;33715;-81
2023/06/01 11:51:30;;;;;;;6.15;3.00;;;;;;;34.81;22.72;99848.81;4484039;32;33855;-80
2023/06/01 11:54:02;;;;;;;;;;;;;;;34.03;23.05;99850.22;4472960;31;33241;-82
2023/06/01 11:56:30;;;;;;;;;;;;;;;31.11;26.91;99846.28;4495524;31;33723;-83
2023/06/01 11:58:59;;;;;;;;;;;;;;;32.45;25.17;99842.53;4470171;32;33721;-84
2023/06/01 12:01:27;;;;;;;;;;;;;;;32.83;24.76;99847.97;4493158;31;33974;-83
2023/06/01 12:03:57;;;;;;;;;;;;;;;32.61;23.73;99846.28;4492457;31;34097;-83
2023/06/01 12:06:27;;;;;;;;;;;;;;;31.32;25.46;99844.56;4484088;32;32987;-83
2023/06/01 12:08:55;;;;;;;;;;;;;;;33.12;22.79;99838.59;4484530;31;33205;-82
2023/06/01 12:11:26;;;;;;;;;;;;;;;32.82;23.51;99824.78;4473873;32;33955;-81
2023/06/01 12:13:54;;;;;;;;;;;;;;;31.19;25.78;99834.41;4479159;32;34853;-82
2023/06/01 12:16:22;;;;;;;;;;;;;;;30.50;28.08;99824.50;4471136;32;33959;-81
2023/06/01 12:18:50;;;;;;;;;;;;;;;30.72;30.35;99816.56;4479530;31;33512;-83
2023/06/01 12:21:17;;;;;;;;;;;;;;;30.05;28.75;99819.88;4478148;32;33808;-82
2023/06/01 12:23:51;;;;;;;;;;;;;;;30.07;28.97;99824.22;4473580;32;33934;-82
2023/06/01 12:26:18;;;;;;;;;;;;;;;29.76;28.46;99819.06;4487803;31;34095;-81
2023/06/01 12:28:46;;;;;;;;;;;;;;;29.77;29.51;99815.50;4490672;31;33823;-81
2023/06/01 12:31:15;;;;;;;;;;;;;;;30.38;26.55;99812.47;4473238;31;34248;-81
2023/06/01 12:33:45;;;;;;;;;;;;;;;32.81;24.68;99802.44;4466339;32;34988;-86
2023/06/01 12:36:31;;;;;;;;;;;;;;;31.20;26.89;99810.25;4495235;31;34138;-82
2023/06/01 12:38:59;;;;;;;;;;;;;;;33.04;25.56;99795.97;4483249;31;33845;-82
2023/06/01 12:41:27;;;;;;;;;;;;;;;33.61;24.62;99793.22;4490280;31;34213;-84
2023/06/01 12:43:55;;;;;;;;;;;;;;;33.99;24.83;99792.22;4476849;31;34794;-82
2023/06/01 12:46:22;;;;;;;;;;;;;;;33.32;24.80;99785.75;4496042;31;34914;-82